Flight Track Log - Related Links

Times and Time Zones

All times are in EDT time to prevent confusion due to time zone crossing. See the BJS542 flight status page for this flight to view local times or setup timezone preferences in your user account.

Time Position Orientation Groundspeed Altitude Reporting Facility
EDT Latitude Longitude Course Direction KTS MPH feet Rate Location/Type
Sat 03:37:27 PM 42.1667 -71.1667 217° Southwest 107 123 1,300  Level KA90
Sat 03:38:03 PM 42.1500 -71.1833 217° Southwest 180 207 2,200 1,794 Climbing KA90
Sat 03:39:04 PM 42.1547 -71.2722 274° West 188 216 4,200 2,876 Climbing Boston Center
Sat 03:40:04 PM 42.1661 -71.3617 280° West 250 288 8,000 4,300 Climbing Boston Center
Sat 03:41:04 PM 42.1836 -71.4792 281° West 288 331 12,800 4,650 Climbing Boston Center
Sat 03:42:04 PM 42.1806 -71.6025 268° West 322 371 17,300 4,050 Climbing Boston Center
Sat 03:43:04 PM 42.1792 -71.7200 269° West 342 394 20,900 3,800 Climbing Boston Center
Sat 03:44:04 PM 42.1781 -71.8489 269° West 347 399 24,900 3,300 Climbing Boston Center
Sat 03:45:04 PM 42.1744 -71.9864 268° West 352 405 27,500 2,100 Climbing Boston Center
Sat 03:46:04 PM 42.1708 -72.1347 268° West 379 436 29,100 1,250 Climbing Boston Center
Sat 03:47:04 PM 42.1689 -72.2944 269° West 403 464 30,000 1,250 Climbing Boston Center
Sat 03:48:04 PM 42.1650 -72.4514 268° West 420 483 31,600 1,773 Climbing Boston Center
Sat 03:49:16 PM 42.1606 -72.6025 268° West 420 483 33,900 2,455 Climbing Boston Center
Sat 03:50:16 PM 42.1561 -72.7931 268° West 420 483 37,000 2,600 Climbing Boston Center
Sat 03:51:16 PM 42.1514 -72.9442 268° West 415 478 39,100 1,550 Climbing Boston Center
Sat 03:52:16 PM 42.1464 -73.0981 268° West 415 478 40,100 600 Climbing Boston Center
Sat 03:53:16 PM 42.1431 -73.2578 268° West 420 483 40,300 -200 Climbing Boston Center
Sat 03:54:16 PM 42.1397 -73.4228 268° West 415 478 39,700 -650 Descending Boston Center
Sat 03:55:16 PM 42.1383 -73.5683 269° West 410 472 39,000 -350 Descending Boston Center
Sat 03:56:16 PM 42.1286 -73.7139 265° West 409 471 39,000  Level Boston Center
Sat 03:57:16 PM 42.1244 -73.8817 268° West 414 476 39,000  Level Boston Center
Sat 03:58:16 PM 42.1183 -74.0328 267° West 414 476 39,000  Level Boston Center
Sat 04:00:17 PM 42.1078 -74.3183 267° West 408 470 39,000  Level New York Center
Sat 04:01:18 PM 42.1003 -74.4883 267° West 408 470 39,000  Level New York Center
Sat 04:02:18 PM 42.0933 -74.6444 267° West 413 475 39,000  Level New York Center
Sat 04:03:16 PM 42.0858 -74.8033 266° West 424 488 39,000  Level New York Center
Sat 04:04:17 PM 42.0806 -74.9594 267° West 424 488 39,000  Level New York Center
Sat 04:05:18 PM 42.0728 -75.1153 266° West 424 488 39,000  Level New York Center
Sat 04:06:17 PM 42.0628 -75.2767 265° West 424 488 39,000  Level New York Center
Sat 04:07:18 PM 42.0175 -75.4244 248° West 419 482 39,000  Level New York Center
Sat 04:08:19 PM 41.9597 -75.5681 242° Southwest 429 494 39,000  Level New York Center
Sat 04:09:17 PM 41.8997 -75.7114 241° Southwest 439 505 39,000  Level New York Center
Sat 04:10:17 PM 41.8417 -75.8519 241° Southwest 444 511 39,000  Level New York Center
Sat 04:11:18 PM 41.7833 -75.9947 241° Southwest 444 511 39,000  Level New York Center
Sat 04:12:18 PM 41.7231 -76.1375 241° Southwest 444 511 39,000  Level New York Center
Sat 04:13:16 PM 41.6625 -76.2769 240° Southwest 444 511 39,000  Level New York Center
Sat 04:14:17 PM 41.6036 -76.4219 242° Southwest 444 511 39,000  Level New York Center
Sat 04:15:18 PM 41.5450 -76.5583 240° Southwest 444 511 39,000  Level New York Center
Sat 04:16:17 PM 41.4861 -76.6972 241° Southwest 439 505 39,000  Level New York Center
Sat 04:17:16 PM 41.4269 -76.8331 240° Southwest 434 499 39,000  Level New York Center
Sat 04:18:17 PM 41.3681 -76.9661 240° Southwest 429 494 39,000  Level New York Center
Sat 04:19:17 PM 41.3108 -77.1017 241° Southwest 429 494 39,000  Level New York Center
Sat 04:20:18 PM 41.2519 -77.2314 239° Southwest 429 494 39,000  Level New York Center
Sat 04:21:19 PM 41.1922 -77.3664 240° Southwest 429 494 39,000  Level New York Center
Sat 04:23:09 PM 41.0833 -77.6133 240° Southwest 423 487 39,000  Level Cleveland Center
Sat 04:24:09 PM 41.0264 -77.7425 240° Southwest 423 487 39,000  Level Cleveland Center
Sat 04:25:09 PM 40.9669 -77.8772 240° Southwest 418 481 39,000  Level Cleveland Center
Sat 04:26:09 PM 40.9117 -78.0114 241° Southwest 418 481 39,000  Level Cleveland Center
Sat 04:27:09 PM 40.8689 -78.1475 247° West 418 481 39,000  Level Cleveland Center
Sat 04:28:09 PM 40.8258 -78.2836 247° West 408 470 39,000 -400 Level Cleveland Center
Sat 04:29:09 PM 40.7847 -78.4250 249° West 408 470 38,200 -1,150 Descending Cleveland Center
Sat 04:30:09 PM 40.7497 -78.5575 251° West 403 464 36,700 -1,100 Descending Cleveland Center
Sat 04:31:09 PM 40.7164 -78.6903 252° West 387 445 36,000 -350 Descending Cleveland Center
Sat 04:32:09 PM 40.6850 -78.8089 251° West 387 445 36,000  Level Cleveland Center
Sat 04:33:09 PM 40.6494 -78.9439 251° West 392 451 36,000  Level Cleveland Center
Sat 04:34:09 PM 40.6139 -79.0869 252° West 392 451 36,000  Level Cleveland Center
Sat 04:35:09 PM 40.5761 -79.2244 250° West 392 451 36,000  Level Cleveland Center
Sat 04:36:09 PM 40.5422 -79.3536 251° West 392 451 36,000  Level Cleveland Center
Sat 04:37:09 PM 40.5081 -79.4853 251° West 387 445 36,000  Level Cleveland Center
Sat 04:38:09 PM 40.4925 -79.6194 261° West 387 445 36,000 -500 Level Cleveland Center
Sat 04:39:09 PM 40.4789 -79.7533 262° West 375 432 35,000 -1,400 Descending Cleveland Center
Sat 04:40:09 PM 40.4653 -79.8900 263° West 375 432 33,200 -2,000 Descending Cleveland Center
Sat 04:41:09 PM 40.4472 -80.0347 261° West 381 438 31,000 -2,100 Descending Cleveland Center
Sat 04:42:09 PM 40.4333 -80.1767 263° West 397 457 29,000 -2,050 Descending Cleveland Center
Sat 04:43:09 PM 40.4172 -80.3267 262° West 408 470 26,900 -2,050 Descending Cleveland Center
Sat 04:44:09 PM 40.4047 -80.4603 263° West 414 476 24,900 -1,500 Descending Cleveland Center
Sat 04:45:09 PM 40.3881 -80.6075 262° West 419 482 23,900 -1,000 Descending Cleveland Center
Sat 04:46:09 PM 40.3714 -80.7603 262° West 419 482 22,900 -950 Descending Cleveland Center
Sat 04:47:09 PM 40.3544 -80.9100 262° West 419 482 22,000 -950 Descending Cleveland Center
Sat 04:48:09 PM 40.3392 -81.0597 262° West 419 482 21,000 -1,250 Descending Cleveland Center
Sat 04:49:09 PM 40.3219 -81.2011 261° West 419 482 19,500 -1,446 Descending Cleveland Center
Sat 04:50:55 PM 40.2903 -81.4514 261° West 390 449 17,000 -1,429 Descending Indianapolis Center
Sat 04:51:57 PM 40.2744 -81.5922 262° West 388 447 15,500 -1,463 Descending Indianapolis Center
Sat 04:52:58 PM 40.2583 -81.7278 261° West 377 434 14,000 -1,747 Descending Indianapolis Center
Sat 04:53:16 PM 40.2531 -81.7758 262° West 374 430 13,200 -1,452 Descending Indianapolis Center
Sat 04:54:00 PM 40.2414 -81.8625 260° West 372 428 12,500 -1,340 Descending Indianapolis Center
Sat 04:54:59 PM 40.2231 -82.0075 261° West 361 415 10,900 -738 Descending Indianapolis Center
Sat 04:56:02 PM 40.2092 -82.1253 261° West 347 399 11,000 -47 Climbing Indianapolis Center
Sat 04:57:07 PM 40.1903 -82.2714 260° West 339 390 10,800 -488 Descending Indianapolis Center
Sat 04:58:05 PM 40.1794 -82.3664 262° West 329 379 10,000 -400 Descending Indianapolis Center
Sat 04:59:07 PM 40.1647 -82.4811 261° West 320 368 10,000 -488 Level Indianapolis Center
Sat 05:00:08 PM 40.1503 -82.5825 259° West 286 329 9,000 -1,073 Descending Indianapolis Center
Sat 05:01:10 PM 40.1306 -82.7017 258° West 285 328 7,800 -1,122 Descending Indianapolis Center
Sat 05:02:11 PM 40.1147 -82.7975 258° West 261 300 6,700 -878 Descending Indianapolis Center
Sat 05:03:13 PM 40.1031 -82.8800 260° West 241 277 6,000 -878 Descending Indianapolis Center
Sat 05:04:14 PM 40.0892 -82.9603 257° West 228 262 4,900 -945 Descending Indianapolis Center
Sat 05:05:20 PM 40.0744 -83.0519 258° West 226 260 4,000 -634 Descending Indianapolis Center
Sat 05:06:17 PM 40.0375 -83.0694 200° South 205 236 3,600 -655 Descending Indianapolis Center
Sat 05:07:19 PM 40.0036 -83.0336 141° Southeast 186 214 2,700 -878 Descending Indianapolis Center
Sat 05:08:20 PM 39.9989 -82.9747 96° East 170 196 1,800 -780 Descending Indianapolis Center
Sat 05:09:22 PM 39.9961 -82.9236 94° East 153 176 1,100 -677 Descending Indianapolis Center

Login

Don't have an account? Register now (free) for customized features, flight alerts, and more!